Time;durP1;ratioP1;P1;durP2;ratioP2;P2;SDS_P1;SDS_P2;PMS_P1;PMS_P2;Temp;Humidity;BMP_temperature;BMP_pressure;BME280_temperature;BME280_humidity;BME280_pressure;Samples;Min_cycle;Max_cycle;Signal;HPM_P1;HPM_P2
2023/08/05 00:00:45;;;;;;;11.57;3.70;;;;;;;12.57;100.00;100979.16;4989586;28;20506;-74
2023/08/05 00:03:11;;;;;;;11.68;4.10;;;;;;;12.55;100.00;100971.31;4971987;28;20084;-74
2023/08/05 00:05:37;;;;;;;14.65;4.85;;;;;;;12.52;100.00;100973.50;4972074;28;20038;-74
2023/08/05 00:08:04;;;;;;;9.48;3.55;;;;;;;12.53;100.00;100977.84;4986043;28;20113;-74
2023/08/05 00:10:30;;;;;;;9.38;3.65;;;;;;;12.53;100.00;100973.31;4971458;28;20034;-74
2023/08/05 00:12:56;;;;;;;10.95;4.45;;;;;;;12.51;100.00;100971.81;4971828;28;20025;-74
2023/08/05 00:15:21;;;;;;;16.85;3.65;;;;;;;12.60;100.00;100971.63;4986872;28;20137;-74
2023/08/05 00:17:47;;;;;;;10.77;3.77;;;;;;;12.53;100.00;100961.78;4989145;28;20101;-74
2023/08/05 00:20:12;;;;;;;8.33;3.90;;;;;;;12.54;100.00;100964.28;4988909;28;20095;-74
2023/08/05 00:22:37;;;;;;;12.03;3.83;;;;;;;12.51;100.00;100975.34;4971923;28;20030;-74
2023/08/05 00:25:03;;;;;;;11.80;3.10;;;;;;;12.54;100.00;100975.00;4988260;28;20049;-74
2023/08/05 00:27:29;;;;;;;9.65;3.70;;;;;;;12.53;100.00;100973.31;4988196;28;20026;-74
2023/08/05 00:29:54;;;;;;;4.50;3.13;;;;;;;12.52;100.00;100978.84;4988121;28;20093;-74
2023/08/05 00:32:19;;;;;;;9.93;3.53;;;;;;;12.53;100.00;100989.41;4971395;28;20513;-74
2023/08/05 00:34:45;;;;;;;10.82;4.18;;;;;;;12.55;100.00;100987.38;4989128;28;20026;-74
2023/08/05 00:37:10;;;;;;;10.33;3.37;;;;;;;12.59;100.00;100982.50;4973294;28;20041;-74
2023/08/05 00:39:36;;;;;;;15.63;3.40;;;;;;;12.58;100.00;100981.69;4987539;28;20030;-74
2023/08/05 00:42:05;;;;;;;12.90;4.20;;;;;;;12.75;100.00;100995.88;4970335;28;20120;-73
2023/08/05 00:44:30;;;;;;;12.93;3.50;;;;;;;12.75;100.00;100987.00;4971503;28;20026;-74
2023/08/05 00:46:57;;;;;;;8.65;3.22;;;;;;;12.80;100.00;100990.00;4971212;28;20022;-74
2023/08/05 00:49:23;;;;;;;9.95;3.40;;;;;;;12.78;100.00;100979.47;4985924;28;20042;-74
2023/08/05 00:51:48;;;;;;;13.25;3.25;;;;;;;12.86;100.00;100989.34;4971213;28;20014;-74
2023/08/05 00:54:14;;;;;;;11.73;3.38;;;;;;;12.87;100.00;100980.28;4985602;28;20038;-74
2023/08/05 00:56:40;;;;;;;10.73;3.63;;;;;;;12.92;100.00;100982.44;4986772;28;20033;-74
2023/08/05 00:59:07;;;;;;;12.65;3.40;;;;;;;12.95;100.00;100974.06;4971720;28;20188;-74
2023/08/05 01:01:32;;;;;;;11.13;2.77;;;;;;;12.94;100.00;100965.19;4970729;28;20499;-74
2023/08/05 01:03:57;;;;;;;8.83;3.13;;;;;;;13.05;100.00;100978.22;4988272;28;20042;-74
2023/08/05 01:06:24;;;;;;;19.73;4.50;;;;;;;13.04;100.00;100973.88;4990254;28;20677;-74
2023/08/05 01:08:50;;;;;;;8.95;3.70;;;;;;;13.12;100.00;100967.63;4992111;28;20034;-74
2023/08/05 01:11:22;;;;;;;9.27;3.75;;;;;;;13.14;100.00;100954.06;4970746;28;20439;-74
2023/08/05 01:14:06;;;;;;;9.80;3.40;;;;;;;13.14;100.00;100970.16;4969452;28;20057;-74
2023/08/05 01:16:32;;;;;;;9.63;3.50;;;;;;;13.16;100.00;100968.09;4970892;28;20042;-74
2023/08/05 01:18:59;;;;;;;9.23;3.53;;;;;;;13.16;100.00;100970.78;4970832;28;20026;-74
2023/08/05 01:21:34;;;;;;;13.15;4.93;;;;;;;13.20;100.00;100972.94;4986416;28;20049;-74
2023/08/05 01:24:35;;;;;;;10.43;3.83;;;;;;;13.16;100.00;100965.44;4970324;28;20116;-73
2023/08/05 01:27:02;;;;;;;10.57;3.22;;;;;;;13.23;100.00;100974.47;4945679;28;20038;-74
2023/08/05 01:29:27;;;;;;;10.07;3.53;;;;;;;13.16;100.00;100968.09;4986587;28;20026;-74
2023/08/05 01:31:54;;;;;;;9.20;3.97;;;;;;;13.08;100.00;100959.09;4970379;28;20069;-74
2023/08/05 01:34:19;;;;;;;;;;;;;;;13.13;100.00;100965.78;4985305;28;20061;-74
2023/08/05 01:36:44;;;;;;;9.05;3.10;;;;;;;12.98;100.00;100961.16;4954317;28;19953;-74
2023/08/05 01:39:10;;;;;;;13.87;3.40;;;;;;;12.96;100.00;100955.13;4984648;28;20022;-74
2023/08/05 01:41:35;;;;;;;6.37;3.40;;;;;;;12.80;100.00;100945.28;4970252;28;20093;-75
2023/08/05 01:44:01;;;;;;;11.90;3.40;;;;;;;12.79;100.00;100956.19;4984086;28;20058;-74
2023/08/05 01:46:26;;;;;;;9.10;3.37;;;;;;;12.80;100.00;100957.84;4970523;28;20077;-75
2023/08/05 01:48:51;;;;;;;8.40;3.63;;;;;;;12.78;100.00;100962.53;4986770;28;20026;-75
2023/08/05 01:51:17;;;;;;;12.97;3.20;;;;;;;12.63;100.00;100963.25;4971195;28;20038;-77
2023/08/05 01:53:43;;;;;;;9.23;4.30;;;;;;;12.62;100.00;100966.94;4971573;28;20045;-75
2023/08/05 01:56:08;;;;;;;5.93;3.10;;;;;;;12.56;100.00;100972.97;4994480;28;20041;-75
2023/08/05 01:58:33;;;;;;;8.33;3.53;;;;;;;12.56;100.00;100981.00;4994647;28;20034;-75
2023/08/05 02:00:59;;;;;;;4.03;2.87;;;;;;;12.48;100.00;100985.53;4985135;28;20124;-73
2023/08/05 02:03:24;;;;;;;5.63;3.20;;;;;;;12.44;100.00;100995.75;4968531;28;20091;-72
2023/08/05 02:05:49;;;;;;;13.20;4.07;;;;;;;12.39;100.00;100990.09;4976052;28;20083;-75
2023/08/05 02:08:15;;;;;;;11.43;3.73;;;;;;;12.41;100.00;100998.78;4976586;28;20520;-74
2023/08/05 02:10:41;;;;;;;6.73;3.47;;;;;;;12.44;100.00;101001.13;5001250;28;20034;-74
2023/08/05 02:13:06;;;;;;;10.13;4.07;;;;;;;12.44;100.00;101011.84;4984588;28;20022;-75
2023/08/05 02:15:32;;;;;;;10.43;4.27;;;;;;;12.45;100.00;101018.84;4985199;28;20399;-75
2023/08/05 02:17:57;;;;;;;25.90;4.60;;;;;;;12.53;100.00;101021.53;4986705;28;20273;-74
2023/08/05 02:20:23;;;;;;;12.48;4.35;;;;;;;12.54;100.00;101017.84;5001194;28;20031;-75
2023/08/05 02:22:48;;;;;;;11.83;3.87;;;;;;;12.55;100.00;101019.53;4985331;28;20133;-76
2023/08/05 02:25:14;;;;;;;8.10;3.77;;;;;;;12.63;100.00;101021.34;5001065;28;20491;-72
2023/08/05 02:27:39;;;;;;;8.57;4.43;;;;;;;12.65;100.00;101020.19;5001251;28;20036;-73
2023/08/05 02:30:06;;;;;;;6.93;3.53;;;;;;;12.70;100.00;101017.00;4984956;28;20128;-76
2023/08/05 02:32:32;;;;;;;8.35;3.72;;;;;;;12.77;100.00;101027.88;4984808;28;20026;-73
2023/08/05 02:34:57;;;;;;;13.67;3.33;;;;;;;12.79;100.00;101025.84;4989091;28;20042;-75
2023/08/05 02:37:23;;;;;;;13.10;4.07;;;;;;;12.76;100.00;101015.47;4998165;28;20030;-74
2023/08/05 02:39:48;;;;;;;10.07;3.90;;;;;;;12.84;100.00;101018.13;4988803;28;20037;-74
2023/08/05 02:42:13;;;;;;;9.13;3.43;;;;;;;12.87;100.00;101020.47;4975658;28;20632;-75
2023/08/05 02:44:39;;;;;;;13.03;4.87;;;;;;;12.90;100.00;101020.16;4992228;28;20514;-73
2023/08/05 02:47:04;;;;;;;10.83;3.37;;;;;;;12.91;100.00;101018.28;5008627;28;20036;-72
2023/08/05 02:49:31;;;;;;;10.73;3.97;;;;;;;13.01;100.00;101021.59;4977573;28;20040;-74
2023/08/05 02:51:57;;;;;;;14.00;3.33;;;;;;;13.06;100.00;101014.75;5008154;28;20300;-75
2023/08/05 02:54:22;;;;;;;15.10;4.47;;;;;;;13.12;100.00;101005.16;4991724;28;20131;-74
2023/08/05 02:56:47;;;;;;;9.90;3.40;;;;;;;13.14;100.00;100992.44;4991472;28;20483;-75
2023/08/05 02:59:13;;;;;;;6.97;3.93;;;;;;;13.17;100.00;100988.56;4977496;28;20037;-74
2023/08/05 03:01:39;;;;;;;7.95;3.90;;;;;;;13.14;100.00;100991.59;5005068;28;20026;-72
2023/08/05 03:04:04;;;;;;;11.30;4.50;;;;;;;13.11;100.00;100992.78;4988198;28;20096;-73
2023/08/05 03:06:30;;;;;;;17.57;5.37;;;;;;;13.02;100.00;100999.19;4972258;28;20022;-75
2023/08/05 03:08:55;;;;;;;13.50;4.03;;;;;;;13.03;100.00;101001.66;4988652;28;20034;-75
2023/08/05 03:11:21;;;;;;;11.85;4.68;;;;;;;13.05;100.00;101007.69;4987833;28;20029;-75
2023/08/05 03:13:47;;;;;;;14.32;4.45;;;;;;;13.10;100.00;101008.00;4972137;28;20026;-75
2023/08/05 03:16:14;;;;;;;11.07;3.73;;;;;;;13.08;100.00;101007.34;4983785;28;20041;-77
2023/08/05 03:18:49;;;;;;;11.25;4.00;;;;;;;13.02;100.00;100989.28;5003630;28;20395;-74
2023/08/05 03:21:15;;;;;;;10.13;4.13;;;;;;;12.99;100.00;100988.78;4982095;28;20032;-75
2023/08/05 03:23:40;;;;;;;10.07;4.00;;;;;;;13.10;100.00;100994.59;4973453;28;20478;-74
2023/08/05 03:26:06;;;;;;;20.90;5.35;;;;;;;13.08;100.00;100977.84;4988023;28;20285;-75
2023/08/05 03:28:32;;;;;;;13.70;4.13;;;;;;;13.15;100.00;100990.56;4988337;28;20029;-76
2023/08/05 03:30:58;;;;;;;12.13;4.18;;;;;;;13.17;100.00;100991.25;5004169;28;20091;-75
2023/08/05 03:33:28;;;;;;;9.18;3.78;;;;;;;13.20;100.00;100989.03;4980017;28;20104;-75
2023/08/05 03:35:56;;;;;;;10.30;4.20;;;;;;;13.26;100.00;100990.19;4988342;28;20031;-76
2023/08/05 03:38:23;;;;;;;9.65;3.78;;;;;;;13.26;100.00;100995.56;4987611;28;20026;-74
2023/08/05 03:40:49;;;;;;;6.43;3.77;;;;;;;13.28;100.00;100982.84;4982680;28;20041;-72
2023/08/05 03:43:14;;;;;;;10.33;4.07;;;;;;;13.39;100.00;101003.94;4987448;28;20050;-75
2023/08/05 03:45:40;;;;;;;6.50;3.60;;;;;;;13.34;100.00;100998.22;4986673;28;20305;-76
2023/08/05 03:48:05;;;;;;;13.37;4.40;;;;;;;13.38;100.00;100994.19;4983130;28;20022;-75
2023/08/05 03:50:31;;;;;;;8.37;4.07;;;;;;;13.42;100.00;100998.19;4987740;28;20053;-75
2023/08/05 03:52:57;;;;;;;7.40;3.70;;;;;;;13.45;100.00;100995.16;4984231;28;20538;-76
2023/08/05 03:55:23;;;;;;;9.02;4.13;;;;;;;13.46;100.00;100996.84;4974007;28;20038;-74
2023/08/05 03:57:49;;;;;;;11.30;3.88;;;;;;;13.47;100.00;100992.31;4963477;28;20108;-75
2023/08/05 04:00:17;;;;;;;15.32;3.58;;;;;;;13.44;100.00;100977.41;4985808;28;20114;-75
2023/08/05 04:02:44;;;;;;;13.85;3.90;;;;;;;13.52;100.00;100984.56;4971833;28;20030;-73
2023/08/05 04:05:09;;;;;;;11.07;4.15;;;;;;;13.54;100.00;100966.47;4972901;28;20061;-74
2023/08/05 04:07:35;;;;;;;;;;;;;;;13.46;100.00;100953.06;4956542;28;20022;-75
2023/08/05 04:10:01;;;;;;;15.98;3.60;;;;;;;13.52;100.00;100942.47;4986104;28;20401;-75
2023/08/05 04:12:28;;;;;;;9.40;3.67;;;;;;;13.48;100.00;100922.38;4970769;28;20364;-75
2023/08/05 04:14:57;;;;;;;7.68;3.05;;;;;;;13.54;100.00;100930.75;4972357;28;20093;-74
2023/08/05 04:17:23;;;;;;;16.48;4.47;;;;;;;13.47;100.00;100912.69;4987263;28;20091;-75
2023/08/05 04:19:50;;;;;;;10.90;3.70;;;;;;;13.34;100.00;100911.59;4972014;28;20049;-75
2023/08/05 04:22:20;;;;;;;10.65;3.80;;;;;;;13.41;100.00;100917.91;4986193;28;20493;-76
2023/08/05 04:24:46;;;;;;;12.30;4.88;;;;;;;13.43;100.00;100927.44;4972266;28;20035;-75
2023/08/05 04:27:12;;;;;;;11.38;3.67;;;;;;;13.42;100.00;100923.13;4986967;28;20025;-75
2023/08/05 04:29:37;;;;;;;10.07;3.97;;;;;;;13.47;100.00;100923.41;4988304;28;20081;-73
2023/08/05 04:32:03;;;;;;;6.27;3.23;;;;;;;13.50;100.00;100917.69;4956342;28;20034;-76
2023/08/05 04:34:33;;;;;;;8.30;3.83;;;;;;;13.55;100.00;100911.78;4956111;28;20038;-73
2023/08/05 04:37:17;;;;;;;13.70;4.38;;;;;;;13.65;100.00;100909.72;4975771;28;20505;-72
2023/08/05 04:39:43;;;;;;;10.45;4.30;;;;;;;13.70;100.00;100911.88;4966170;28;20550;-75
2023/08/05 04:42:08;;;;;;;13.70;3.85;;;;;;;13.82;100.00;100921.16;4956880;28;20018;-74
2023/08/05 04:44:34;;;;;;;14.13;3.47;;;;;;;13.98;100.00;100919.34;4963165;28;20081;-75
2023/08/05 04:46:59;;;;;;;11.33;4.10;;;;;;;13.85;100.00;100909.22;4973811;28;20421;-75
2023/08/05 04:49:24;;;;;;;10.13;3.73;;;;;;;13.82;100.00;100897.00;4987517;28;20026;-74
2023/08/05 04:51:50;;;;;;;5.83;3.50;;;;;;;13.88;100.00;100901.66;4974134;28;20026;-75
2023/08/05 04:54:15;;;;;;;12.60;4.03;;;;;;;13.98;100.00;100905.94;4987864;28;20038;-77
2023/08/05 04:56:40;;;;;;;10.73;3.37;;;;;;;13.91;100.00;100881.69;4973096;28;20026;-75
2023/08/05 04:59:06;;;;;;;12.93;3.53;;;;;;;14.06;100.00;100893.28;4971958;28;20116;-74
2023/08/05 05:01:32;;;;;;;9.80;3.83;;;;;;;14.05;100.00;100888.09;4971150;28;20030;-75
2023/08/05 05:03:57;;;;;;;;;;;;;;;14.12;100.00;100886.38;4987789;28;20046;-76
2023/08/05 05:06:23;;;;;;;7.95;3.20;;;;;;;14.30;100.00;100883.31;4971218;28;20452;-75
2023/08/05 05:08:49;;;;;;;16.00;3.90;;;;;;;14.48;100.00;100889.16;4971416;28;20117;-72
2023/08/05 05:11:14;;;;;;;6.30;3.40;;;;;;;14.60;100.00;100865.38;4985588;28;20566;-74
2023/08/05 05:13:40;;;;;;;10.63;4.03;;;;;;;14.62;100.00;100847.22;4969566;28;20080;-75
2023/08/05 05:16:05;;;;;;;12.80;3.50;;;;;;;14.54;100.00;100831.22;4987179;28;20116;-74
2023/08/05 05:18:30;;;;;;;7.13;4.13;;;;;;;14.66;100.00;100848.53;4955969;28;20435;-75
2023/08/05 05:20:56;;;;;;;6.63;3.50;;;;;;;14.70;100.00;100844.47;4970540;28;20022;-74
2023/08/05 05:23:21;;;;;;;11.97;2.90;;;;;;;14.54;100.00;100818.63;4984827;28;20048;-75
2023/08/05 05:25:46;;;;;;;6.13;3.43;;;;;;;14.52;100.00;100819.81;4970973;28;20038;-75
2023/08/05 05:28:12;;;;;;;9.43;3.20;;;;;;;14.57;100.00;100828.16;4985382;28;20476;-75
2023/08/05 05:30:37;;;;;;;8.13;3.73;;;;;;;14.57;100.00;100818.25;4970605;28;20113;-73
2023/08/05 05:33:03;;;;;;;9.18;3.15;;;;;;;14.71;100.00;100803.13;4984392;28;20038;-75
2023/08/05 05:35:29;;;;;;;9.07;3.10;;;;;;;14.74;100.00;100816.16;4954874;28;20030;-71
2023/08/05 05:37:54;;;;;;;8.18;2.78;;;;;;;14.98;100.00;100825.78;4970687;28;20144;-74
2023/08/05 05:40:20;;;;;;;9.17;3.83;;;;;;;15.04;100.00;100799.97;4983964;28;20128;-75
2023/08/05 05:42:46;;;;;;;13.37;3.70;;;;;;;15.13;100.00;100776.50;4970076;28;20034;-75
2023/08/05 05:45:11;;;;;;;7.78;3.28;;;;;;;15.11;100.00;100774.00;4984336;28;20038;-75
2023/08/05 05:47:36;;;;;;;8.70;2.97;;;;;;;15.20;100.00;100785.47;4986509;28;20495;-74
2023/08/05 05:50:03;;;;;;;8.37;3.43;;;;;;;15.38;100.00;100804.69;4969943;28;20038;-74
2023/08/05 05:52:28;;;;;;;9.70;3.25;;;;;;;15.48;100.00;100793.59;4971445;28;20038;-71
2023/08/05 05:54:54;;;;;;;11.73;3.37;;;;;;;15.51;100.00;100774.34;4954600;28;20380;-73
2023/08/05 05:57:22;;;;;;;13.00;3.38;;;;;;;15.67;100.00;100777.81;4984116;28;20108;-76
2023/08/05 05:59:47;;;;;;;9.32;3.17;;;;;;;15.71;100.00;100781.78;4970433;28;20087;-75
2023/08/05 06:02:13;;;;;;;11.17;3.90;;;;;;;15.77;100.00;100768.38;4988934;28;20050;-74
2023/08/05 06:04:39;;;;;;;4.67;2.77;;;;;;;15.65;100.00;100777.16;4970350;28;20454;-76
2023/08/05 06:07:04;;;;;;;6.10;2.97;;;;;;;15.83;100.00;100796.38;4985890;28;20038;-73
2023/08/05 06:09:31;;;;;;;7.13;2.87;;;;;;;15.80;100.00;100759.06;4961286;28;20537;-75
2023/08/05 06:11:57;;;;;;;7.38;3.20;;;;;;;16.11;100.00;100795.50;4970349;28;20535;-75
2023/08/05 06:14:22;;;;;;;9.77;2.97;;;;;;;16.18;100.00;100746.06;4984069;28;20061;-74
2023/08/05 06:16:47;;;;;;;9.97;3.30;;;;;;;15.98;100.00;100704.72;4954079;28;20034;-75
2023/08/05 06:19:13;;;;;;;10.33;3.30;;;;;;;16.34;100.00;100766.47;4986517;28;20535;-75
2023/08/05 06:21:38;;;;;;;8.00;3.03;;;;;;;16.09;100.00;100697.97;4970114;28;20122;-75
2023/08/05 06:24:04;;;;;;;9.20;2.97;;;;;;;15.88;100.00;100702.41;4984282;28;20399;-72
2023/08/05 06:26:29;;;;;;;5.40;2.63;;;;;;;16.06;100.00;100703.72;4954040;28;20041;-74
2023/08/05 06:28:55;;;;;;;5.70;2.63;;;;;;;16.36;100.00;100721.25;4961140;28;20837;-75
2023/08/05 06:31:20;;;;;;;8.23;2.60;;;;;;;16.63;100.00;100662.06;4984604;28;20065;-76
2023/08/05 06:33:45;;;;;;;10.00;2.63;;;;;;;16.85;100.00;100701.31;4969841;28;20121;-75
2023/08/05 06:36:11;;;;;;;11.93;3.17;;;;;;;16.91;100.00;100663.81;4982863;28;20034;-75
2023/08/05 06:38:36;;;;;;;8.30;2.43;;;;;;;16.84;100.00;100616.09;4970156;28;20026;-75
2023/08/05 06:41:01;;;;;;;5.70;2.97;;;;;;;16.83;100.00;100625.22;4983295;28;20030;-74
2023/08/05 06:43:27;;;;;;;6.23;3.53;;;;;;;17.09;100.00;100632.50;4969629;28;20546;-75
2023/08/05 06:45:52;;;;;;;3.97;2.63;;;;;;;17.89;100.00;100612.63;4970205;28;20484;-75
2023/08/05 06:48:20;;;;;;;7.85;2.47;;;;;;;18.80;100.00;100403.25;4986383;28;20080;-76
2023/08/05 06:50:46;;;;;;;6.67;2.27;;;;;;;20.24;100.00;100278.66;4970027;28;20035;-75
2023/08/05 06:53:11;;;;;;;4.73;2.00;;;;;;;20.29;100.00;99971.66;4984824;28;20081;-76
2023/08/05 06:55:36;;;;;;;4.07;1.77;;;;;;;19.87;100.00;99730.13;4969403;28;20033;-75
2023/08/05 06:58:02;;;;;;;6.33;2.07;;;;;;;19.54;100.00;99875.22;4984005;28;20483;-74
2023/08/05 07:00:27;;;;;;;5.90;2.03;;;;;;;20.17;100.00;99917.53;4970652;28;20192;-76
2023/08/05 07:02:53;;;;;;;3.43;1.73;;;;;;;20.38;100.00;99823.78;4969891;28;20329;-75
2023/08/05 07:05:18;;;;;;;6.40;2.33;;;;;;;20.59;100.00;99767.97;4983693;28;20038;-73
2023/08/05 07:07:44;;;;;;;6.90;3.00;;;;;;;20.94;100.00;99796.59;4970448;28;20034;-71
2023/08/05 07:10:11;;;;;;;5.32;2.15;;;;;;;21.36;100.00;99519.06;4983465;28;20043;-75
2023/08/05 07:12:37;;;;;;;5.32;2.15;;;;;;;19.82;100.00;99419.44;4986441;28;20030;-75
2023/08/05 07:15:06;;;;;;;7.97;1.75;;;;;;;20.07;100.00;99638.31;4969579;28;20365;-73
2023/08/05 07:17:31;;;;;;;6.15;2.20;;;;;;;19.69;100.00;99817.84;4969668;28;20514;-75
2023/08/05 07:19:57;;;;;;;3.95;1.98;;;;;;;20.13;100.00;99682.53;4973335;28;20034;-74
2023/08/05 07:22:22;;;;;;;5.07;1.50;;;;;;;19.90;100.00;99735.88;4973386;28;20062;-74
2023/08/05 07:24:48;;;;;;;7.97;2.10;;;;;;;19.89;100.00;99836.31;4989100;28;20045;-75
2023/08/05 07:27:13;;;;;;;3.10;2.07;;;;;;;20.39;100.00;99800.22;4972949;28;20336;-74
2023/08/05 07:29:42;;;;;;;12.68;2.30;;;;;;;20.19;100.00;99774.47;4989504;28;20030;-72
2023/08/05 07:32:07;;;;;;;2.95;2.10;;;;;;;19.75;100.00;99695.00;4972766;28;20087;-75
2023/08/05 07:34:33;;;;;;;4.03;1.63;;;;;;;20.38;100.00;99831.13;4972885;28;20513;-74
2023/08/05 07:36:59;;;;;;;2.67;1.80;;;;;;;20.15;100.00;99605.31;4972926;28;20313;-72
2023/08/05 07:39:28;;;;;;;4.13;1.95;;;;;;;20.37;100.00;99723.75;4987961;28;20058;-71
2023/08/05 07:41:53;;;;;;;2.63;1.17;;;;;;;21.33;100.00;99757.63;4972953;28;20058;-73
2023/08/05 07:44:19;;;;;;;4.22;1.52;;;;;;;22.11;100.00;99714.53;4987343;28;20137;-73
2023/08/05 07:46:47;;;;;;;1.30;1.07;;;;;;;22.61;99.57;99607.03;4972943;28;20037;-73
2023/08/05 07:49:12;;;;;;;3.33;1.10;;;;;;;22.98;94.43;99429.09;4987510;28;20033;-76
2023/08/05 07:51:39;;;;;;;1.57;1.30;;;;;;;22.13;89.37;99011.97;4989945;28;20350;-75
2023/08/05 07:54:05;;;;;;;6.22;1.40;;;;;;;22.77;89.68;99303.16;4971130;28;20774;-75
2023/08/05 07:56:32;;;;;;;2.67;0.80;;;;;;;23.20;86.79;99234.66;4973118;28;20029;-75
2023/08/05 07:58:57;;;;;;;1.38;0.70;;;;;;;22.34;82.97;98806.06;4989998;28;20430;-76
2023/08/05 08:01:23;;;;;;;1.63;1.00;;;;;;;22.49;83.29;99024.53;4973024;28;20091;-75
2023/08/05 08:03:53;;;;;;;5.93;1.52;;;;;;;21.79;85.20;99108.84;4988479;28;20117;-72
2023/08/05 08:06:18;;;;;;;1.65;0.55;;;;;;;22.25;84.22;99147.56;4972677;28;20148;-72
2023/08/05 08:08:44;;;;;;;1.25;0.88;;;;;;;21.91;82.44;98884.69;4972660;28;20077;-73
2023/08/05 08:11:10;;;;;;;2.28;0.90;;;;;;;21.34;85.04;99048.91;4987023;28;20045;-75
2023/08/05 08:13:36;;;;;;;2.25;0.80;;;;;;;22.05;85.70;99345.97;4972308;28;20018;-75
2023/08/05 08:16:01;;;;;;;2.70;0.98;;;;;;;21.96;82.64;99046.84;4985902;28;20046;-74
2023/08/05 08:18:27;;;;;;;3.93;1.00;;;;;;;21.68;83.65;99118.91;4973001;28;20437;-75
2023/08/05 08:20:53;;;;;;;1.63;1.00;;;;;;;21.10;84.97;99110.28;4987434;28;20031;-74
2023/08/05 08:23:18;;;;;;;3.75;0.95;;;;;;;22.22;86.60;99546.84;4971825;28;20794;-75
2023/08/05 08:25:44;;;;;;;2.45;1.27;;;;;;;22.13;83.93;99262.00;4971870;28;20038;-73
2023/08/05 08:28:09;;;;;;;2.88;1.25;;;;;;;22.45;83.16;99271.75;4986880;28;20030;-74
2023/08/05 08:30:35;;;;;;;4.40;1.20;;;;;;;22.21;84.70;99372.09;4970110;28;20037;-74
2023/08/05 08:33:00;;;;;;;5.00;1.40;;;;;;;22.49;85.13;99465.06;4983535;28;20442;-75
2023/08/05 08:35:25;;;;;;;2.73;1.10;;;;;;;23.53;81.86;99426.44;4970411;28;20411;-75
2023/08/05 08:37:51;;;;;;;2.20;1.10;;;;;;;23.93;76.56;99082.03;4989388;28;20057;-74
2023/08/05 08:40:16;;;;;;;3.13;1.13;;;;;;;23.90;75.68;98981.75;4970207;28;20296;-75
2023/08/05 08:42:42;;;;;;;1.77;1.30;;;;;;;23.18;75.60;98819.28;4955689;28;20030;-74
2023/08/05 08:45:09;;;;;;;;;;;;;;;22.01;76.26;98601.22;4987970;28;20038;-76
2023/08/05 08:47:37;;;;;;;5.03;1.50;;;;;;;21.58;82.12;99124.38;4964796;28;19917;-75
2023/08/05 08:50:02;;;;;;;4.82;1.40;;;;;;;20.94;82.05;98881.59;4971377;28;20411;-75
2023/08/05 08:52:30;;;;;;;2.30;1.30;;;;;;;20.26;86.99;99196.28;4988497;28;20034;-75
2023/08/05 08:54:56;;;;;;;2.78;1.52;;;;;;;20.00;87.89;99198.84;4971417;28;20116;-74
2023/08/05 08:57:25;;;;;;;3.15;1.15;;;;;;;19.98;88.15;99222.66;4986230;28;20049;-75
2023/08/05 08:59:50;;;;;;;3.53;1.52;;;;;;;19.59;92.05;99409.69;4971498;28;20480;-74
2023/08/05 09:02:25;;;;;;;2.73;1.67;;;;;;;19.75;94.54;99609.16;4984944;28;20088;-73
2023/08/05 09:04:55;;;;;;;6.13;1.65;;;;;;;19.79;98.95;99799.06;4955150;28;20027;-74
2023/08/05 09:07:25;;;;;;;4.30;1.30;;;;;;;19.99;95.61;99617.06;4985013;28;20042;-75
2023/08/05 09:09:50;;;;;;;2.88;1.40;;;;;;;20.36;93.80;99610.97;4970226;28;20041;-71
2023/08/05 09:12:16;;;;;;;2.60;1.67;;;;;;;20.59;91.78;99515.81;4986716;28;20022;-74
2023/08/05 09:14:41;;;;;;;5.72;1.55;;;;;;;20.55;92.91;99555.31;4971207;28;20476;-75
2023/08/05 09:17:07;;;;;;;6.23;1.80;;;;;;;20.10;96.87;99729.91;4985037;28;20030;-75
2023/08/05 09:19:32;;;;;;;4.13;2.03;;;;;;;20.98;95.51;99832.22;4971311;28;20074;-74
2023/08/05 09:22:02;;;;;;;3.80;1.43;;;;;;;21.36;92.54;99719.13;4971278;28;20034;-75
2023/08/05 09:24:28;;;;;;;4.03;1.30;;;;;;;21.44;93.09;99797.41;4970076;28;20113;-74
2023/08/05 09:26:58;;;;;;;4.43;1.30;;;;;;;21.28;91.87;99638.97;4970997;28;20032;-74
2023/08/05 09:29:25;;;;;;;4.20;1.50;;;;;;;20.54;90.08;99289.91;4985627;28;20034;-71
2023/08/05 09:32:08;;;;;;;4.38;1.33;;;;;;;20.51;92.32;99513.56;4987044;28;20090;-73
2023/08/05 09:34:45;;;;;;;3.53;1.73;;;;;;;20.69;91.66;99503.41;4970474;28;20038;-72
2023/08/05 09:37:13;;;;;;;3.33;1.48;;;;;;;21.17;92.53;99691.56;4985190;28;20439;-73
2023/08/05 09:39:50;;;;;;;2.65;1.70;;;;;;;21.34;92.78;99743.00;4986407;28;20045;-73
2023/08/05 09:42:25;;;;;;;3.05;1.50;;;;;;;21.25;90.01;99506.50;4971168;28;20030;-74
2023/08/05 09:44:53;;;;;;;3.67;1.33;;;;;;;21.02;89.74;99421.72;4970501;28;20475;-73
2023/08/05 09:47:21;;;;;;;2.55;1.38;;;;;;;20.80;90.64;99434.63;4985376;28;20126;-73
2023/08/05 09:49:51;;;;;;;2.65;1.20;;;;;;;20.39;87.16;99065.69;4954172;28;20204;-75
2023/08/05 09:52:20;;;;;;;1.15;1.00;;;;;;;20.29;88.10;99184.91;4984077;28;20042;-74
2023/08/05 09:54:53;;;;;;;3.83;1.20;;;;;;;20.30;93.05;99553.22;4970530;28;20076;-75
2023/08/05 09:57:20;;;;;;;2.47;1.13;;;;;;;20.58;91.36;99540.47;4985793;28;20524;-72
2023/08/05 09:59:46;;;;;;;3.70;1.33;;;;;;;20.66;89.89;99421.50;4986048;28;20018;-74
2023/08/05 10:02:13;;;;;;;3.20;1.63;;;;;;;20.75;95.42;99828.66;4970047;28;20373;-74
2023/08/05 10:04:41;;;;;;;3.70;1.23;;;;;;;21.45;92.53;99799.88;4970201;28;20214;-71
2023/08/05 10:07:07;;;;;;;1.23;1.00;;;;;;;21.91;89.31;99656.28;4984233;28;20534;-74
2023/08/05 10:09:35;;;;;;;5.75;1.92;;;;;;;21.53;91.04;99656.56;4963631;28;20430;-73
2023/08/05 10:12:03;;;;;;;3.00;1.80;;;;;;;23.16;88.99;99964.84;4970086;28;20042;-74
2023/08/05 10:14:29;;;;;;;2.47;1.30;;;;;;;24.22;78.51;99299.25;4967187;28;20563;-73
2023/08/05 10:16:54;;;;;;;;;;;;;;;24.35;77.37;99254.94;4965987;28;20108;-75
2023/08/05 10:19:27;;;;;;;7.00;1.73;;;;;;;23.75;74.85;98958.25;4984862;28;20331;-75
2023/08/05 10:22:06;;;;;;;3.03;1.48;;;;;;;23.84;76.32;99183.78;4968889;28;20049;-75
2023/08/05 10:24:57;;;;;;;5.50;1.48;;;;;;;24.44;71.52;98819.53;4970346;28;20472;-75
2023/08/05 10:27:33;;;;;;;2.83;1.30;;;;;;;24.73;73.55;99134.19;4986207;28;20518;-74
2023/08/05 10:30:14;;;;;;;4.88;1.23;;;;;;;23.80;73.04;98933.66;4969691;28;20062;-71
2023/08/05 10:32:56;;;;;;;2.33;1.50;;;;;;;24.45;74.65;99278.53;4963985;28;20037;-75
2023/08/05 10:35:26;;;;;;;7.18;1.52;;;;;;;24.16;73.89;99153.16;4983748;28;20030;-75
2023/08/05 10:38:04;;;;;;;3.75;1.77;;;;;;;23.22;75.09;98939.28;4986344;28;20088;-75
2023/08/05 10:41:02;;;;;;;2.65;1.50;;;;;;;22.94;74.33;98805.69;4979147;28;20142;-73
2023/08/05 10:43:33;;;;;;;2.50;1.50;;;;;;;21.93;77.04;98830.84;4969871;28;20041;-73
2023/08/05 10:45:59;;;;;;;6.45;1.98;;;;;;;22.16;78.63;99056.78;4954211;28;20608;-72
2023/08/05 10:48:34;;;;;;;4.00;1.30;;;;;;;22.88;80.30;99480.81;4986107;28;20022;-74
2023/08/05 10:51:19;;;;;;;1.45;1.35;;;;;;;24.52;74.93;99406.44;4968689;28;20042;-75
2023/08/05 10:53:51;;;;;;;2.90;1.25;;;;;;;25.23;70.56;99116.19;4964274;28;20649;-73
2023/08/05 10:56:17;;;;;;;3.25;1.60;;;;;;;24.82;67.18;98592.06;4957376;28;20132;-74
2023/08/05 10:58:46;;;;;;;5.68;1.33;;;;;;;25.49;67.71;98894.47;4973614;28;20148;-72
2023/08/05 11:01:12;;;;;;;4.50;1.77;;;;;;;25.91;63.32;98517.97;4990705;28;20279;-74
2023/08/05 11:03:43;;;;;;;2.55;1.33;;;;;;;25.38;64.51;98609.84;4973490;28;20157;-73
2023/08/05 11:06:12;;;;;;;5.78;1.77;;;;;;;25.94;67.81;99123.41;4970003;28;20455;-75
2023/08/05 11:08:39;;;;;;;2.53;1.30;;;;;;;25.32;62.75;98326.28;4983591;28;20435;-75
2023/08/05 11:11:07;;;;;;;2.97;1.17;;;;;;;26.36;62.49;98683.75;4973657;28;20030;-74
2023/08/05 11:13:37;;;;;;;3.85;1.48;;;;;;;25.62;61.54;98313.59;4989639;28;20054;-74
2023/08/05 11:16:03;;;;;;;4.18;1.45;;;;;;;25.91;62.14;98523.44;4989900;28;20034;-74
2023/08/05 11:18:29;;;;;;;4.47;1.40;;;;;;;25.59;61.29;98347.00;4973635;28;20417;-74
2023/08/05 11:20:58;;;;;;;4.00;1.63;;;;;;;26.52;61.36;98762.34;4972418;28;20293;-71